sensor_id;sensor_type;location;lat;lon;timestamp;P1;durP1;ratioP1;P2;durP2;ratioP2
7529;SDS011;3806;52.270;10.544;2023-08-30T00:00:09;1.65;;;1.20;;
7529;SDS011;3806;52.270;10.544;2023-08-30T00:02:35;3.15;;;1.58;;
7529;SDS011;3806;52.270;10.544;2023-08-30T00:05:02;3.83;;;1.67;;
7529;SDS011;3806;52.270;10.544;2023-08-30T00:07:28;3.00;;;1.52;;
7529;SDS011;3806;52.270;10.544;2023-08-30T00:09:54;2.72;;;1.70;;
7529;SDS011;3806;52.270;10.544;2023-08-30T00:12:20;2.30;;;1.40;;
7529;SDS011;3806;52.270;10.544;2023-08-30T00:14:46;2.58;;;1.52;;
7529;SDS011;3806;52.270;10.544;2023-08-30T00:17:12;2.30;;;1.60;;
7529;SDS011;3806;52.270;10.544;2023-08-30T00:19:38;2.05;;;1.50;;
7529;SDS011;3806;52.270;10.544;2023-08-30T00:22:03;3.17;;;2.05;;
7529;SDS011;3806;52.270;10.544;2023-08-30T00:24:32;3.05;;;1.70;;
7529;SDS011;3806;52.270;10.544;2023-08-30T00:26:58;2.58;;;1.65;;
7529;SDS011;3806;52.270;10.544;2023-08-30T00:29:23;3.97;;;1.90;;
7529;SDS011;3806;52.270;10.544;2023-08-30T00:31:49;4.40;;;1.67;;
7529;SDS011;3806;52.270;10.544;2023-08-30T00:34:14;2.67;;;1.55;;
7529;SDS011;3806;52.270;10.544;2023-08-30T00:36:40;3.28;;;1.80;;
7529;SDS011;3806;52.270;10.544;2023-08-30T00:39:05;3.63;;;1.80;;
7529;SDS011;3806;52.270;10.544;2023-08-30T00:41:31;2.20;;;1.70;;
7529;SDS011;3806;52.270;10.544;2023-08-30T00:43:56;2.08;;;1.48;;
7529;SDS011;3806;52.270;10.544;2023-08-30T00:46:22;2.67;;;1.58;;
7529;SDS011;3806;52.270;10.544;2023-08-30T00:48:47;2.38;;;1.70;;
7529;SDS011;3806;52.270;10.544;2023-08-30T00:51:13;1.92;;;1.20;;
7529;SDS011;3806;52.270;10.544;2023-08-30T00:53:39;2.88;;;1.73;;
7529;SDS011;3806;52.270;10.544;2023-08-30T00:56:04;6.63;;;2.20;;
7529;SDS011;3806;52.270;10.544;2023-08-30T00:58:30;3.63;;;2.15;;
7529;SDS011;3806;52.270;10.544;2023-08-30T01:00:56;3.03;;;1.70;;
7529;SDS011;3806;52.270;10.544;2023-08-30T01:03:22;2.80;;;2.15;;
7529;SDS011;3806;52.270;10.544;2023-08-30T01:05:48;4.28;;;2.50;;
7529;SDS011;3806;52.270;10.544;2023-08-30T01:08:13;4.30;;;2.65;;
7529;SDS011;3806;52.270;10.544;2023-08-30T01:13:33;5.13;;;2.85;;
7529;SDS011;3806;52.270;10.544;2023-08-30T01:16:07;4.60;;;3.15;;
7529;SDS011;3806;52.270;10.544;2023-08-30T01:18:34;5.00;;;3.33;;
7529;SDS011;3806;52.270;10.544;2023-08-30T01:21:02;5.30;;;3.47;;
7529;SDS011;3806;52.270;10.544;2023-08-30T01:29:06;6.57;;;3.42;;
7529;SDS011;3806;52.270;10.544;2023-08-30T01:31:33;5.45;;;3.47;;
7529;SDS011;3806;52.270;10.544;2023-08-30T01:34:01;4.63;;;3.25;;
7529;SDS011;3806;52.270;10.544;2023-08-30T01:36:27;3.88;;;3.05;;
7529;SDS011;3806;52.270;10.544;2023-08-30T01:38:54;3.80;;;2.92;;
7529;SDS011;3806;52.270;10.544;2023-08-30T01:41:20;3.15;;;2.75;;
7529;SDS011;3806;52.270;10.544;2023-08-30T01:43:48;3.85;;;2.83;;
7529;SDS011;3806;52.270;10.544;2023-08-30T01:46:14;4.90;;;2.88;;
7529;SDS011;3806;52.270;10.544;2023-08-30T01:48:42;3.55;;;2.60;;
7529;SDS011;3806;52.270;10.544;2023-08-30T01:51:08;4.45;;;2.35;;
7529;SDS011;3806;52.270;10.544;2023-08-30T01:53:34;5.53;;;2.63;;
7529;SDS011;3806;52.270;10.544;2023-08-30T01:56:00;4.38;;;2.88;;
7529;SDS011;3806;52.270;10.544;2023-08-30T01:58:26;7.07;;;2.83;;
7529;SDS011;3806;52.270;10.544;2023-08-30T02:00:52;4.25;;;2.63;;
7529;SDS011;3806;52.270;10.544;2023-08-30T02:03:18;5.20;;;2.78;;
7529;SDS011;3806;52.270;10.544;2023-08-30T02:05:47;3.95;;;3.10;;
7529;SDS011;3806;52.270;10.544;2023-08-30T02:08:55;4.30;;;3.20;;
7529;SDS011;3806;52.270;10.544;2023-08-30T02:11:26;3.50;;;2.72;;
7529;SDS011;3806;52.270;10.544;2023-08-30T02:13:53;4.43;;;2.67;;
7529;SDS011;3806;52.270;10.544;2023-08-30T02:16:21;3.47;;;2.95;;
7529;SDS011;3806;52.270;10.544;2023-08-30T02:18:48;4.03;;;3.22;;
7529;SDS011;3806;52.270;10.544;2023-08-30T02:21:15;4.95;;;3.03;;
7529;SDS011;3806;52.270;10.544;2023-08-30T02:23:40;6.32;;;2.70;;
7529;SDS011;3806;52.270;10.544;2023-08-30T02:26:06;4.97;;;3.47;;
7529;SDS011;3806;52.270;10.544;2023-08-30T02:28:31;4.20;;;2.80;;
7529;SDS011;3806;52.270;10.544;2023-08-30T02:30:57;5.65;;;2.33;;
7529;SDS011;3806;52.270;10.544;2023-08-30T02:33:22;5.30;;;2.60;;
7529;SDS011;3806;52.270;10.544;2023-08-30T02:35:48;3.85;;;2.35;;
7529;SDS011;3806;52.270;10.544;2023-08-30T02:38:13;4.45;;;3.05;;
7529;SDS011;3806;52.270;10.544;2023-08-30T02:40:39;3.05;;;2.15;;
7529;SDS011;3806;52.270;10.544;2023-08-30T02:43:04;4.95;;;2.63;;
7529;SDS011;3806;52.270;10.544;2023-08-30T02:45:30;3.90;;;2.70;;
7529;SDS011;3806;52.270;10.544;2023-08-30T02:47:56;2.92;;;2.22;;
7529;SDS011;3806;52.270;10.544;2023-08-30T02:50:24;4.07;;;2.45;;
7529;SDS011;3806;52.270;10.544;2023-08-30T02:52:50;3.50;;;2.35;;
7529;SDS011;3806;52.270;10.544;2023-08-30T02:55:16;3.45;;;2.45;;
7529;SDS011;3806;52.270;10.544;2023-08-30T02:57:41;7.32;;;3.08;;
7529;SDS011;3806;52.270;10.544;2023-08-30T03:00:07;4.35;;;3.03;;
7529;SDS011;3806;52.270;10.544;2023-08-30T03:02:33;3.65;;;2.60;;
7529;SDS011;3806;52.270;10.544;2023-08-30T03:04:59;4.38;;;2.75;;
7529;SDS011;3806;52.270;10.544;2023-08-30T03:07:25;3.35;;;2.78;;
7529;SDS011;3806;52.270;10.544;2023-08-30T03:09:53;6.65;;;2.72;;
7529;SDS011;3806;52.270;10.544;2023-08-30T03:12:19;3.05;;;2.33;;
7529;SDS011;3806;52.270;10.544;2023-08-30T03:14:45;4.63;;;3.20;;
7529;SDS011;3806;52.270;10.544;2023-08-30T03:17:11;2.80;;;2.25;;
7529;SDS011;3806;52.270;10.544;2023-08-30T03:19:36;4.47;;;2.78;;
7529;SDS011;3806;52.270;10.544;2023-08-30T03:22:02;3.47;;;2.40;;
7529;SDS011;3806;52.270;10.544;2023-08-30T03:24:28;5.70;;;2.60;;
7529;SDS011;3806;52.270;10.544;2023-08-30T03:26:53;4.47;;;2.50;;
7529;SDS011;3806;52.270;10.544;2023-08-30T03:29:19;3.92;;;2.63;;
7529;SDS011;3806;52.270;10.544;2023-08-30T03:31:44;3.47;;;2.80;;
7529;SDS011;3806;52.270;10.544;2023-08-30T03:34:10;2.75;;;2.33;;
7529;SDS011;3806;52.270;10.544;2023-08-30T03:36:37;4.55;;;3.10;;
7529;SDS011;3806;52.270;10.544;2023-08-30T03:39:03;3.10;;;2.35;;
7529;SDS011;3806;52.270;10.544;2023-08-30T03:41:28;4.53;;;2.70;;
7529;SDS011;3806;52.270;10.544;2023-08-30T03:43:54;4.28;;;2.90;;
7529;SDS011;3806;52.270;10.544;2023-08-30T03:46:19;5.25;;;2.80;;
7529;SDS011;3806;52.270;10.544;2023-08-30T03:48:45;7.72;;;3.15;;
7529;SDS011;3806;52.270;10.544;2023-08-30T03:51:10;3.25;;;2.42;;
7529;SDS011;3806;52.270;10.544;2023-08-30T03:53:36;3.45;;;2.45;;
7529;SDS011;3806;52.270;10.544;2023-08-30T03:56:02;4.93;;;2.97;;
7529;SDS011;3806;52.270;10.544;2023-08-30T03:58:28;4.57;;;2.80;;
7529;SDS011;3806;52.270;10.544;2023-08-30T04:00:54;4.20;;;2.65;;
7529;SDS011;3806;52.270;10.544;2023-08-30T04:03:20;3.63;;;2.40;;
7529;SDS011;3806;52.270;10.544;2023-08-30T04:05:45;3.22;;;2.15;;
7529;SDS011;3806;52.270;10.544;2023-08-30T04:08:11;4.13;;;2.45;;
7529;SDS011;3806;52.270;10.544;2023-08-30T04:10:37;3.92;;;2.10;;
7529;SDS011;3806;52.270;10.544;2023-08-30T04:13:03;4.88;;;2.20;;
7529;SDS011;3806;52.270;10.544;2023-08-30T04:15:36;3.78;;;2.30;;
7529;SDS011;3806;52.270;10.544;2023-08-30T04:18:03;3.53;;;2.53;;
7529;SDS011;3806;52.270;10.544;2023-08-30T04:20:30;4.32;;;2.60;;
7529;SDS011;3806;52.270;10.544;2023-08-30T04:22:57;3.42;;;2.88;;
7529;SDS011;3806;52.270;10.544;2023-08-30T04:25:23;2.90;;;2.20;;
7529;SDS011;3806;52.270;10.544;2023-08-30T04:27:49;2.80;;;2.03;;
7529;SDS011;3806;52.270;10.544;2023-08-30T04:30:15;3.42;;;2.30;;
7529;SDS011;3806;52.270;10.544;2023-08-30T04:32:41;4.68;;;2.55;;
7529;SDS011;3806;52.270;10.544;2023-08-30T04:35:07;2.80;;;2.22;;
7529;SDS011;3806;52.270;10.544;2023-08-30T04:37:33;4.18;;;2.63;;
7529;SDS011;3806;52.270;10.544;2023-08-30T04:39:59;4.70;;;2.50;;
7529;SDS011;3806;52.270;10.544;2023-08-30T04:42:24;4.60;;;2.33;;
7529;SDS011;3806;52.270;10.544;2023-08-30T04:44:50;3.92;;;2.28;;
7529;SDS011;3806;52.270;10.544;2023-08-30T04:47:17;4.07;;;2.50;;
7529;SDS011;3806;52.270;10.544;2023-08-30T04:49:42;4.10;;;2.92;;
7529;SDS011;3806;52.270;10.544;2023-08-30T04:52:08;5.32;;;2.95;;
7529;SDS011;3806;52.270;10.544;2023-08-30T04:54:33;6.05;;;3.15;;
7529;SDS011;3806;52.270;10.544;2023-08-30T04:56:59;4.05;;;2.47;;
7529;SDS011;3806;52.270;10.544;2023-08-30T04:59:24;6.20;;;2.88;;
7529;SDS011;3806;52.270;10.544;2023-08-30T05:01:50;4.60;;;2.63;;
7529;SDS011;3806;52.270;10.544;2023-08-30T05:04:16;4.57;;;3.25;;
7529;SDS011;3806;52.270;10.544;2023-08-30T05:06:42;8.23;;;3.17;;
7529;SDS011;3806;52.270;10.544;2023-08-30T05:09:08;5.93;;;2.85;;
7529;SDS011;3806;52.270;10.544;2023-08-30T05:11:33;6.32;;;3.40;;
7529;SDS011;3806;52.270;10.544;2023-08-30T05:13:59;8.93;;;3.40;;
7529;SDS011;3806;52.270;10.544;2023-08-30T05:16:25;8.20;;;3.72;;
7529;SDS011;3806;52.270;10.544;2023-08-30T05:18:50;6.07;;;3.28;;
7529;SDS011;3806;52.270;10.544;2023-08-30T05:21:16;7.28;;;3.75;;
7529;SDS011;3806;52.270;10.544;2023-08-30T05:23:41;5.25;;;3.40;;
7529;SDS011;3806;52.270;10.544;2023-08-30T05:26:10;8.98;;;4.35;;
7529;SDS011;3806;52.270;10.544;2023-08-30T05:28:37;5.53;;;3.20;;
7529;SDS011;3806;52.270;10.544;2023-08-30T05:31:03;6.30;;;2.90;;
7529;SDS011;3806;52.270;10.544;2023-08-30T05:33:29;4.53;;;2.60;;
7529;SDS011;3806;52.270;10.544;2023-08-30T05:35:55;5.47;;;2.58;;
7529;SDS011;3806;52.270;10.544;2023-08-30T05:38:20;5.70;;;2.90;;
7529;SDS011;3806;52.270;10.544;2023-08-30T05:40:46;5.18;;;2.70;;
7529;SDS011;3806;52.270;10.544;2023-08-30T05:43:12;3.58;;;2.72;;
7529;SDS011;3806;52.270;10.544;2023-08-30T05:45:37;5.07;;;2.50;;
7529;SDS011;3806;52.270;10.544;2023-08-30T05:48:03;5.30;;;3.03;;
7529;SDS011;3806;52.270;10.544;2023-08-30T05:50:29;4.45;;;2.90;;
7529;SDS011;3806;52.270;10.544;2023-08-30T05:52:55;3.22;;;2.25;;
7529;SDS011;3806;52.270;10.544;2023-08-30T05:55:20;4.72;;;1.95;;
7529;SDS011;3806;52.270;10.544;2023-08-30T05:57:46;4.22;;;2.45;;
7529;SDS011;3806;52.270;10.544;2023-08-30T06:00:12;5.35;;;2.30;;
7529;SDS011;3806;52.270;10.544;2023-08-30T06:02:38;3.72;;;2.35;;
7529;SDS011;3806;52.270;10.544;2023-08-30T06:05:05;3.67;;;2.28;;
7529;SDS011;3806;52.270;10.544;2023-08-30T06:07:30;5.68;;;2.10;;
7529;SDS011;3806;52.270;10.544;2023-08-30T06:09:56;3.38;;;2.60;;
7529;SDS011;3806;52.270;10.544;2023-08-30T06:12:22;4.45;;;2.28;;
7529;SDS011;3806;52.270;10.544;2023-08-30T06:14:47;5.13;;;2.40;;
7529;SDS011;3806;52.270;10.544;2023-08-30T06:17:17;4.15;;;2.00;;
7529;SDS011;3806;52.270;10.544;2023-08-30T06:19:44;2.65;;;1.88;;
7529;SDS011;3806;52.270;10.544;2023-08-30T06:22:10;3.03;;;2.30;;
7529;SDS011;3806;52.270;10.544;2023-08-30T06:24:35;4.75;;;2.45;;
7529;SDS011;3806;52.270;10.544;2023-08-30T06:27:01;6.18;;;2.22;;
7529;SDS011;3806;52.270;10.544;2023-08-30T06:29:26;3.42;;;1.90;;
7529;SDS011;3806;52.270;10.544;2023-08-30T06:31:52;3.25;;;1.90;;
7529;SDS011;3806;52.270;10.544;2023-08-30T06:34:17;8.05;;;2.60;;
7529;SDS011;3806;52.270;10.544;2023-08-30T06:36:43;4.75;;;2.00;;
7529;SDS011;3806;52.270;10.544;2023-08-30T06:39:08;8.45;;;2.05;;
7529;SDS011;3806;52.270;10.544;2023-08-30T06:41:34;4.32;;;1.90;;
7529;SDS011;3806;52.270;10.544;2023-08-30T06:43:59;4.20;;;2.13;;
7529;SDS011;3806;52.270;10.544;2023-08-30T06:46:25;5.65;;;1.73;;
7529;SDS011;3806;52.270;10.544;2023-08-30T06:48:50;3.15;;;2.30;;
7529;SDS011;3806;52.270;10.544;2023-08-30T06:51:16;5.60;;;2.63;;
7529;SDS011;3806;52.270;10.544;2023-08-30T06:53:41;4.03;;;1.95;;
7529;SDS011;3806;52.270;10.544;2023-08-30T06:56:07;5.13;;;2.00;;
7529;SDS011;3806;52.270;10.544;2023-08-30T06:58:32;3.60;;;2.50;;
7529;SDS011;3806;52.270;10.544;2023-08-30T07:00:58;2.90;;;2.05;;
7529;SDS011;3806;52.270;10.544;2023-08-30T07:03:23;4.85;;;2.20;;
7529;SDS011;3806;52.270;10.544;2023-08-30T07:05:52;4.90;;;2.22;;
7529;SDS011;3806;52.270;10.544;2023-08-30T07:08:18;3.15;;;1.83;;
7529;SDS011;3806;52.270;10.544;2023-08-30T07:10:43;7.80;;;1.88;;
7529;SDS011;3806;52.270;10.544;2023-08-30T07:13:09;5.78;;;2.10;;
7529;SDS011;3806;52.270;10.544;2023-08-30T07:15:41;4.07;;;1.73;;
7529;SDS011;3806;52.270;10.544;2023-08-30T07:18:07;2.75;;;1.67;;
7529;SDS011;3806;52.270;10.544;2023-08-30T07:20:34;2.67;;;2.13;;
7529;SDS011;3806;52.270;10.544;2023-08-30T07:23:01;6.05;;;2.42;;
7529;SDS011;3806;52.270;10.544;2023-08-30T07:25:27;4.57;;;2.30;;
7529;SDS011;3806;52.270;10.544;2023-08-30T07:27:55;7.20;;;2.33;;
7529;SDS011;3806;52.270;10.544;2023-08-30T07:30:21;4.88;;;2.00;;
7529;SDS011;3806;52.270;10.544;2023-08-30T07:32:46;4.32;;;2.28;;
7529;SDS011;3806;52.270;10.544;2023-08-30T07:35:12;5.22;;;2.00;;
7529;SDS011;3806;52.270;10.544;2023-08-30T07:37:38;6.05;;;2.20;;
7529;SDS011;3806;52.270;10.544;2023-08-30T07:40:03;6.43;;;1.98;;
7529;SDS011;3806;52.270;10.544;2023-08-30T07:42:29;4.85;;;2.00;;
7529;SDS011;3806;52.270;10.544;2023-08-30T07:44:55;3.78;;;1.60;;
7529;SDS011;3806;52.270;10.544;2023-08-30T07:47:20;4.97;;;1.90;;
7529;SDS011;3806;52.270;10.544;2023-08-30T07:49:46;3.47;;;1.80;;
7529;SDS011;3806;52.270;10.544;2023-08-30T07:52:11;3.88;;;1.67;;
7529;SDS011;3806;52.270;10.544;2023-08-30T07:54:39;3.40;;;1.95;;
7529;SDS011;3806;52.270;10.544;2023-08-30T07:57:05;5.93;;;2.08;;
7529;SDS011;3806;52.270;10.544;2023-08-30T07:59:32;4.35;;;1.75;;
7529;SDS011;3806;52.270;10.544;2023-08-30T08:01:59;4.57;;;1.95;;
7529;SDS011;3806;52.270;10.544;2023-08-30T08:04:24;2.78;;;1.60;;
7529;SDS011;3806;52.270;10.544;2023-08-30T08:06:50;2.58;;;1.38;;
7529;SDS011;3806;52.270;10.544;2023-08-30T08:09:16;2.45;;;1.40;;
7529;SDS011;3806;52.270;10.544;2023-08-30T08:11:42;3.42;;;1.52;;
7529;SDS011;3806;52.270;10.544;2023-08-30T08:14:09;2.13;;;1.83;;
7529;SDS011;3806;52.270;10.544;2023-08-30T08:16:36;2.95;;;1.40;;
7529;SDS011;3806;52.270;10.544;2023-08-30T08:19:01;3.47;;;1.50;;
7529;SDS011;3806;52.270;10.544;2023-08-30T08:21:27;2.22;;;1.50;;
7529;SDS011;3806;52.270;10.544;2023-08-30T08:23:53;3.55;;;1.40;;
7529;SDS011;3806;52.270;10.544;2023-08-30T08:26:18;3.13;;;1.30;;
7529;SDS011;3806;52.270;10.544;2023-08-30T08:28:44;3.92;;;1.30;;
7529;SDS011;3806;52.270;10.544;2023-08-30T08:31:09;4.28;;;1.63;;
7529;SDS011;3806;52.270;10.544;2023-08-30T08:33:35;1.45;;;1.10;;
7529;SDS011;3806;52.270;10.544;2023-08-30T08:36:01;3.05;;;1.27;;
7529;SDS011;3806;52.270;10.544;2023-08-30T08:38:27;2.30;;;1.23;;
7529;SDS011;3806;52.270;10.544;2023-08-30T08:41:00;3.15;;;1.30;;
7529;SDS011;3806;52.270;10.544;2023-08-30T08:43:30;1.42;;;1.02;;
7529;SDS011;3806;52.270;10.544;2023-08-30T08:46:01;6.00;;;1.35;;
7529;SDS011;3806;52.270;10.544;2023-08-30T08:48:28;3.28;;;1.52;;
7529;SDS011;3806;52.270;10.544;2023-08-30T08:50:56;1.48;;;1.08;;
7529;SDS011;3806;52.270;10.544;2023-08-30T08:53:22;6.22;;;1.40;;
7529;SDS011;3806;52.270;10.544;2023-08-30T08:55:48;3.65;;;1.38;;
7529;SDS011;3806;52.270;10.544;2023-08-30T08:58:16;3.80;;;1.08;;
7529;SDS011;3806;52.270;10.544;2023-08-30T09:00:42;4.32;;;1.38;;
7529;SDS011;3806;52.270;10.544;2023-08-30T09:03:08;2.42;;;0.95;;
7529;SDS011;3806;52.270;10.544;2023-08-30T09:05:35;2.78;;;1.00;;
7529;SDS011;3806;52.270;10.544;2023-08-30T09:08:02;2.22;;;0.90;;
7529;SDS011;3806;52.270;10.544;2023-08-30T09:10:29;1.90;;;1.10;;
7529;SDS011;3806;52.270;10.544;2023-08-30T09:12:57;3.10;;;1.25;;
7529;SDS011;3806;52.270;10.544;2023-08-30T09:15:30;3.05;;;1.55;;
7529;SDS011;3806;52.270;10.544;2023-08-30T09:17:59;3.28;;;1.27;;
7529;SDS011;3806;52.270;10.544;2023-08-30T09:20:25;5.75;;;1.27;;
7529;SDS011;3806;52.270;10.544;2023-08-30T09:22:51;3.05;;;1.00;;
7529;SDS011;3806;52.270;10.544;2023-08-30T09:25:23;3.95;;;1.40;;
7529;SDS011;3806;52.270;10.544;2023-08-30T09:27:51;2.47;;;1.55;;
7529;SDS011;3806;52.270;10.544;2023-08-30T09:30:22;2.15;;;1.13;;
7529;SDS011;3806;52.270;10.544;2023-08-30T09:32:48;3.78;;;1.40;;
7529;SDS011;3806;52.270;10.544;2023-08-30T09:35:13;5.47;;;1.52;;
7529;SDS011;3806;52.270;10.544;2023-08-30T09:37:39;3.20;;;1.38;;
7529;SDS011;3806;52.270;10.544;2023-08-30T09:40:05;4.65;;;1.35;;
7529;SDS011;3806;52.270;10.544;2023-08-30T09:42:31;5.75;;;1.38;;
7529;SDS011;3806;52.270;10.544;2023-08-30T09:44:57;2.33;;;1.20;;
7529;SDS011;3806;52.270;10.544;2023-08-30T09:47:25;4.78;;;1.20;;
7529;SDS011;3806;52.270;10.544;2023-08-30T09:49:52;2.15;;;1.52;;
7529;SDS011;3806;52.270;10.544;2023-08-30T09:52:20;3.50;;;1.35;;
7529;SDS011;3806;52.270;10.544;2023-08-30T09:54:48;8.35;;;2.00;;
7529;SDS011;3806;52.270;10.544;2023-08-30T09:57:16;2.90;;;1.45;;
7529;SDS011;3806;52.270;10.544;2023-08-30T09:59:42;8.25;;;2.20;;
7529;SDS011;3806;52.270;10.544;2023-08-30T10:02:08;5.60;;;2.05;;
7529;SDS011;3806;52.270;10.544;2023-08-30T10:04:35;3.40;;;1.80;;
7529;SDS011;3806;52.270;10.544;2023-08-30T10:07:04;3.10;;;1.70;;
7529;SDS011;3806;52.270;10.544;2023-08-30T10:09:32;2.65;;;2.20;;
7529;SDS011;3806;52.270;10.544;2023-08-30T10:11:58;4.68;;;2.40;;
7529;SDS011;3806;52.270;10.544;2023-08-30T10:14:26;4.68;;;1.85;;
7529;SDS011;3806;52.270;10.544;2023-08-30T10:16:52;4.50;;;2.17;;
7529;SDS011;3806;52.270;10.544;2023-08-30T10:19:28;3.20;;;1.73;;
7529;SDS011;3806;52.270;10.544;2023-08-30T10:22:02;4.65;;;2.17;;
7529;SDS011;3806;52.270;10.544;2023-08-30T10:24:29;4.15;;;2.00;;
7529;SDS011;3806;52.270;10.544;2023-08-30T10:27:00;1.35;;;1.25;;
7529;SDS011;3806;52.270;10.544;2023-08-30T10:29:29;2.20;;;1.25;;
7529;SDS011;3806;52.270;10.544;2023-08-30T10:32:01;1.85;;;1.25;;
7529;SDS011;3806;52.270;10.544;2023-08-30T10:34:33;2.60;;;1.40;;
7529;SDS011;3806;52.270;10.544;2023-08-30T10:37:00;1.58;;;1.42;;
7529;SDS011;3806;52.270;10.544;2023-08-30T10:39:32;1.73;;;1.40;;
7529;SDS011;3806;52.270;10.544;2023-08-30T10:44:33;2.95;;;1.70;;
7529;SDS011;3806;52.270;10.544;2023-08-30T10:46:58;2.95;;;2.28;;
7529;SDS011;3806;52.270;10.544;2023-08-30T10:49:27;2.53;;;1.77;;
7529;SDS011;3806;52.270;10.544;2023-08-30T10:51:56;3.38;;;2.03;;
7529;SDS011;3806;52.270;10.544;2023-08-30T10:54:22;4.82;;;1.90;;
7529;SDS011;3806;52.270;10.544;2023-08-30T10:59:20;4.40;;;1.98;;
7529;SDS011;3806;52.270;10.544;2023-08-30T11:01:47;2.25;;;1.60;;
7529;SDS011;3806;52.270;10.544;2023-08-30T11:04:14;1.40;;;1.15;;
7529;SDS011;3806;52.270;10.544;2023-08-30T11:06:44;6.47;;;2.05;;
7529;SDS011;3806;52.270;10.544;2023-08-30T11:09:15;2.75;;;1.63;;
7529;SDS011;3806;52.270;10.544;2023-08-30T11:11:45;3.67;;;1.77;;
7529;SDS011;3806;52.270;10.544;2023-08-30T11:14:12;3.20;;;1.88;;
7529;SDS011;3806;52.270;10.544;2023-08-30T11:16:38;2.70;;;1.88;;
7529;SDS011;3806;52.270;10.544;2023-08-30T11:19:04;3.15;;;2.00;;
7529;SDS011;3806;52.270;10.544;2023-08-30T11:21:33;4.63;;;1.73;;
7529;SDS011;3806;52.270;10.544;2023-08-30T11:23:59;3.35;;;2.08;;
7529;SDS011;3806;52.270;10.544;2023-08-30T11:26:25;3.03;;;1.85;;
7529;SDS011;3806;52.270;10.544;2023-08-30T11:28:51;3.10;;;2.25;;
7529;SDS011;3806;52.270;10.544;2023-08-30T11:31:27;4.38;;;2.10;;
7529;SDS011;3806;52.270;10.544;2023-08-30T11:33:53;3.03;;;1.70;;
7529;SDS011;3806;52.270;10.544;2023-08-30T11:36:23;2.53;;;1.77;;
7529;SDS011;3806;52.270;10.544;2023-08-30T11:38:52;9.32;;;2.08;;
7529;SDS011;3806;52.270;10.544;2023-08-30T11:41:22;3.45;;;1.83;;
7529;SDS011;3806;52.270;10.544;2023-08-30T11:43:51;4.15;;;2.58;;
7529;SDS011;3806;52.270;10.544;2023-08-30T11:46:17;6.47;;;2.10;;
7529;SDS011;3806;52.270;10.544;2023-08-30T11:48:45;4.28;;;2.53;;
7529;SDS011;3806;52.270;10.544;2023-08-30T11:51:12;5.75;;;2.72;;
7529;SDS011;3806;52.270;10.544;2023-08-30T11:53:38;4.85;;;2.83;;
7529;SDS011;3806;52.270;10.544;2023-08-30T11:56:06;3.90;;;2.60;;
7529;SDS011;3806;52.270;10.544;2023-08-30T11:58:32;6.38;;;3.22;;
7529;SDS011;3806;52.270;10.544;2023-08-30T12:00:59;3.85;;;2.88;;
7529;SDS011;3806;52.270;10.544;2023-08-30T12:03:29;7.45;;;3.40;;
7529;SDS011;3806;52.270;10.544;2023-08-30T12:05:56;3.70;;;2.92;;
7529;SDS011;3806;52.270;10.544;2023-08-30T12:08:23;4.30;;;2.70;;
7529;SDS011;3806;52.270;10.544;2023-08-30T12:10:50;3.47;;;2.80;;
7529;SDS011;3806;52.270;10.544;2023-08-30T12:13:28;4.47;;;2.78;;
7529;SDS011;3806;52.270;10.544;2023-08-30T12:15:56;4.65;;;3.10;;
7529;SDS011;3806;52.270;10.544;2023-08-30T12:18:22;4.85;;;3.08;;
7529;SDS011;3806;52.270;10.544;2023-08-30T12:20:59;4.63;;;2.45;;
7529;SDS011;3806;52.270;10.544;2023-08-30T12:23:27;5.03;;;2.45;;
7529;SDS011;3806;52.270;10.544;2023-08-30T12:28:27;3.95;;;2.40;;
7529;SDS011;3806;52.270;10.544;2023-08-30T12:30:53;4.07;;;3.05;;
7529;SDS011;3806;52.270;10.544;2023-08-30T12:33:19;4.05;;;2.83;;
7529;SDS011;3806;52.270;10.544;2023-08-30T12:35:45;6.07;;;2.90;;
7529;SDS011;3806;52.270;10.544;2023-08-30T12:38:10;4.57;;;2.65;;
7529;SDS011;3806;52.270;10.544;2023-08-30T12:40:49;4.28;;;3.15;;
7529;SDS011;3806;52.270;10.544;2023-08-30T12:43:16;5.00;;;2.90;;
7529;SDS011;3806;52.270;10.544;2023-08-30T12:45:42;5.70;;;3.35;;
7529;SDS011;3806;52.270;10.544;2023-08-30T12:48:10;3.90;;;2.97;;
7529;SDS011;3806;52.270;10.544;2023-08-30T12:50:40;6.20;;;3.05;;
7529;SDS011;3806;52.270;10.544;2023-08-30T12:53:06;4.78;;;2.90;;
7529;SDS011;3806;52.270;10.544;2023-08-30T12:55:32;3.45;;;2.28;;
7529;SDS011;3806;52.270;10.544;2023-08-30T12:58:01;7.43;;;2.80;;
7529;SDS011;3806;52.270;10.544;2023-08-30T13:00:27;4.57;;;3.13;;
7529;SDS011;3806;52.270;10.544;2023-08-30T13:02:53;5.90;;;2.60;;
7529;SDS011;3806;52.270;10.544;2023-08-30T13:05:19;5.30;;;2.78;;
7529;SDS011;3806;52.270;10.544;2023-08-30T13:07:44;4.13;;;2.60;;
7529;SDS011;3806;52.270;10.544;2023-08-30T13:10:10;5.25;;;2.65;;
7529;SDS011;3806;52.270;10.544;2023-08-30T13:12:36;3.72;;;2.60;;
7529;SDS011;3806;52.270;10.544;2023-08-30T13:15:02;4.80;;;2.42;;
7529;SDS011;3806;52.270;10.544;2023-08-30T13:17:29;5.82;;;2.88;;
7529;SDS011;3806;52.270;10.544;2023-08-30T13:19:55;5.10;;;2.55;;
7529;SDS011;3806;52.270;10.544;2023-08-30T13:22:21;4.18;;;2.55;;
7529;SDS011;3806;52.270;10.544;2023-08-30T13:24:47;3.55;;;2.22;;
7529;SDS011;3806;52.270;10.544;2023-08-30T13:27:12;5.85;;;3.13;;
7529;SDS011;3806;52.270;10.544;2023-08-30T13:29:38;3.42;;;2.22;;
7529;SDS011;3806;52.270;10.544;2023-08-30T13:32:04;3.15;;;2.17;;
7529;SDS011;3806;52.270;10.544;2023-08-30T13:34:30;4.95;;;2.25;;
7529;SDS011;3806;52.270;10.544;2023-08-30T13:36:55;3.63;;;2.22;;
7529;SDS011;3806;52.270;10.544;2023-08-30T13:39:21;4.35;;;2.22;;
7529;SDS011;3806;52.270;10.544;2023-08-30T13:41:47;3.40;;;2.50;;
7529;SDS011;3806;52.270;10.544;2023-08-30T13:44:13;2.78;;;2.13;;
7529;SDS011;3806;52.270;10.544;2023-08-30T13:46:39;2.92;;;2.03;;
7529;SDS011;3806;52.270;10.544;2023-08-30T13:49:05;3.95;;;2.42;;
7529;SDS011;3806;52.270;10.544;2023-08-30T13:51:31;4.60;;;2.58;;
7529;SDS011;3806;52.270;10.544;2023-08-30T13:53:57;3.75;;;2.25;;
7529;SDS011;3806;52.270;10.544;2023-08-30T13:56:23;3.85;;;2.33;;
7529;SDS011;3806;52.270;10.544;2023-08-30T13:58:49;3.10;;;2.33;;
7529;SDS011;3806;52.270;10.544;2023-08-30T14:01:15;5.18;;;2.60;;
7529;SDS011;3806;52.270;10.544;2023-08-30T14:03:41;3.65;;;1.83;;
7529;SDS011;3806;52.270;10.544;2023-08-30T14:06:07;2.80;;;2.38;;
7529;SDS011;3806;52.270;10.544;2023-08-30T14:08:33;4.32;;;2.15;;
7529;SDS011;3806;52.270;10.544;2023-08-30T14:10:59;5.72;;;3.17;;
7529;SDS011;3806;52.270;10.544;2023-08-30T14:13:24;2.92;;;2.15;;
7529;SDS011;3806;52.270;10.544;2023-08-30T14:15:50;2.58;;;1.98;;
7529;SDS011;3806;52.270;10.544;2023-08-30T14:18:15;5.45;;;2.38;;
7529;SDS011;3806;52.270;10.544;2023-08-30T14:20:41;3.75;;;2.35;;
7529;SDS011;3806;52.270;10.544;2023-08-30T14:23:08;3.50;;;2.40;;
7529;SDS011;3806;52.270;10.544;2023-08-30T14:25:34;3.58;;;2.38;;
7529;SDS011;3806;52.270;10.544;2023-08-30T14:28:00;2.80;;;2.10;;
7529;SDS011;3806;52.270;10.544;2023-08-30T14:30:26;4.10;;;1.90;;
7529;SDS011;3806;52.270;10.544;2023-08-30T14:32:51;2.75;;;2.08;;
7529;SDS011;3806;52.270;10.544;2023-08-30T14:35:17;3.42;;;2.30;;
7529;SDS011;3806;52.270;10.544;2023-08-30T14:37:45;3.25;;;2.42;;
7529;SDS011;3806;52.270;10.544;2023-08-30T14:40:12;4.38;;;2.40;;
7529;SDS011;3806;52.270;10.544;2023-08-30T14:42:38;4.75;;;2.20;;
7529;SDS011;3806;52.270;10.544;2023-08-30T14:45:04;3.55;;;2.60;;
7529;SDS011;3806;52.270;10.544;2023-08-30T14:47:32;3.10;;;2.33;;
7529;SDS011;3806;52.270;10.544;2023-08-30T14:49:58;3.08;;;2.20;;
7529;SDS011;3806;52.270;10.544;2023-08-30T14:52:26;3.20;;;2.28;;
7529;SDS011;3806;52.270;10.544;2023-08-30T14:54:51;3.75;;;2.53;;
7529;SDS011;3806;52.270;10.544;2023-08-30T14:57:17;3.78;;;2.60;;
7529;SDS011;3806;52.270;10.544;2023-08-30T14:59:42;3.53;;;2.67;;
7529;SDS011;3806;52.270;10.544;2023-08-30T15:02:08;3.10;;;2.35;;
7529;SDS011;3806;52.270;10.544;2023-08-30T15:04:33;4.22;;;2.50;;
7529;SDS011;3806;52.270;10.544;2023-08-30T15:06:59;3.90;;;2.45;;
7529;SDS011;3806;52.270;10.544;2023-08-30T15:09:24;3.67;;;2.33;;
7529;SDS011;3806;52.270;10.544;2023-08-30T15:11:50;4.80;;;2.38;;